createdAt,value
2023-03-03T00:00:45.486Z,47.97
2023-03-03T00:03:15.958Z,47.59
2023-03-03T00:05:42.862Z,47.69
2023-03-03T00:08:11.157Z,47.70
2023-03-03T00:10:38.793Z,47.88
2023-03-03T00:13:13.381Z,47.75
2023-03-03T00:15:40.397Z,48.08
2023-03-03T00:18:19.772Z,47.59
2023-03-03T00:20:53.503Z,47.66
2023-03-03T00:23:24.848Z,48.18
2023-03-03T00:25:53.535Z,47.94
2023-03-03T00:28:32.520Z,48.26
2023-03-03T00:31:01.671Z,48.36
2023-03-03T00:33:33.995Z,48.34
2023-03-03T00:36:19.315Z,48.37
2023-03-03T00:38:46.562Z,48.30
2023-03-03T00:41:31.398Z,48.43
2023-03-03T00:43:58.579Z,48.47
2023-03-03T00:46:25.364Z,48.59
2023-03-03T00:48:52.867Z,48.75
2023-03-03T00:51:30.933Z,48.86
2023-03-03T00:53:58.293Z,49.11
2023-03-03T00:56:25.238Z,48.79
2023-03-03T00:58:52.332Z,49.05
2023-03-03T01:01:21.773Z,49.17
2023-03-03T01:03:51.819Z,49.01
2023-03-03T01:06:18.538Z,48.99
2023-03-03T01:08:45.267Z,49.51
2023-03-03T01:11:28.631Z,49.23
2023-03-03T01:13:56.676Z,49.24
2023-03-03T01:16:23.510Z,49.22
2023-03-03T01:18:50.697Z,49.62
2023-03-03T01:21:17.485Z,49.79
2023-03-03T01:23:44.151Z,49.69
2023-03-03T01:26:11.080Z,49.47
2023-03-03T01:28:38.825Z,49.90
2023-03-03T01:31:06.039Z,49.73
2023-03-03T01:33:35.140Z,49.70
2023-03-03T01:36:03.519Z,50.01
2023-03-03T01:38:30.487Z,50.01
2023-03-03T01:40:59.301Z,49.81
2023-03-03T01:43:31.149Z,49.88
2023-03-03T01:46:03.879Z,49.97
2023-03-03T01:48:35.184Z,50.13
2023-03-03T01:51:10.673Z,49.96
2023-03-03T01:53:43.617Z,50.33
2023-03-03T01:56:12.070Z,50.39
2023-03-03T01:58:44.200Z,50.03
2023-03-03T02:01:31.553Z,49.99
2023-03-03T02:03:59.011Z,50.28
2023-03-03T02:06:33.821Z,50.35
2023-03-03T02:09:12.348Z,50.15
2023-03-03T02:11:41.253Z,50.22
2023-03-03T02:14:07.992Z,50.28
2023-03-03T02:16:35.424Z,49.98
2023-03-03T02:19:02.199Z,50.37
2023-03-03T02:21:29.143Z,50.15
2023-03-03T02:24:34.629Z,50.26
2023-03-03T02:27:01.521Z,50.46
2023-03-03T02:29:29.452Z,50.05
2023-03-03T02:31:57.356Z,50.39
2023-03-03T02:34:25.306Z,50.02
2023-03-03T02:36:52.728Z,50.06
2023-03-03T02:39:26.550Z,49.96
2023-03-03T02:42:03.571Z,50.42
2023-03-03T02:44:36.795Z,50.16
2023-03-03T02:47:03.697Z,50.02
2023-03-03T02:49:33.796Z,50.29
2023-03-03T02:52:03.238Z,50.50
2023-03-03T02:54:31.222Z,50.27
2023-03-03T02:57:00.173Z,50.26
2023-03-03T02:59:27.559Z,50.37
2023-03-03T03:01:57.414Z,50.05
2023-03-03T03:04:26.229Z,49.94
2023-03-03T03:06:54.697Z,50.29
2023-03-03T03:09:23.609Z,50.49
2023-03-03T03:11:52.115Z,50.38
2023-03-03T03:14:23.419Z,50.05
2023-03-03T03:16:50.635Z,50.49
2023-03-03T03:19:17.318Z,50.24
2023-03-03T03:21:45.038Z,50.38
2023-03-03T03:24:11.764Z,50.43
2023-03-03T03:26:42.853Z,50.23
2023-03-03T03:29:11.096Z,50.15
2023-03-03T03:31:39.286Z,50.41
2023-03-03T03:34:06.144Z,50.51
2023-03-03T03:36:33.655Z,50.19
2023-03-03T03:39:02.877Z,50.38
2023-03-03T03:41:30.562Z,50.33
2023-03-03T03:43:57.453Z,50.42
2023-03-03T03:46:29.090Z,50.38
2023-03-03T03:48:56.550Z,50.30
2023-03-03T03:51:23.286Z,50.40
2023-03-03T03:53:50.088Z,50.33
2023-03-03T03:56:17.662Z,50.21
2023-03-03T03:58:47.381Z,50.21
2023-03-03T04:01:15.226Z,50.30
2023-03-03T04:03:46.686Z,50.26
2023-03-03T04:06:17.376Z,50.22
2023-03-03T04:08:44.409Z,50.17
2023-03-03T04:11:11.478Z,50.03
2023-03-03T04:13:38.359Z,49.97
2023-03-03T04:16:07.487Z,50.14
2023-03-03T04:18:35.594Z,50.15
2023-03-03T04:21:03.426Z,50.18
2023-03-03T04:23:30.332Z,50.26
2023-03-03T04:25:57.084Z,50.23
2023-03-03T04:28:25.394Z,49.77
2023-03-03T04:30:52.666Z,50.01
2023-03-03T04:33:21.411Z,50.00
2023-03-03T04:35:49.287Z,50.00
2023-03-03T04:38:16.164Z,50.16
2023-03-03T04:40:43.601Z,49.97
2023-03-03T04:43:13.025Z,50.09
2023-03-03T04:45:39.856Z,50.47
2023-03-03T04:48:07.464Z,50.16
2023-03-03T04:50:35.031Z,50.06
2023-03-03T04:53:02.168Z,50.16
2023-03-03T04:55:28.850Z,50.11
2023-03-03T04:57:55.620Z,50.44
2023-03-03T05:00:23.032Z,50.13
2023-03-03T05:02:49.921Z,50.12
2023-03-03T05:05:16.927Z,50.42
2023-03-03T05:07:43.833Z,50.57
2023-03-03T05:10:11.114Z,50.28
2023-03-03T05:12:37.955Z,50.19
2023-03-03T05:15:05.286Z,50.62
2023-03-03T05:17:32.131Z,50.40
2023-03-03T05:19:58.824Z,50.60
2023-03-03T05:22:28.446Z,50.13
2023-03-03T05:24:55.648Z,50.61
2023-03-03T05:27:22.419Z,50.00
2023-03-03T05:29:49.439Z,50.17
2023-03-03T05:32:16.148Z,50.23
2023-03-03T05:34:43.141Z,50.55
2023-03-03T05:37:09.897Z,49.94
2023-03-03T05:39:36.699Z,50.38
2023-03-03T05:42:03.538Z,50.34
2023-03-03T05:44:30.288Z,50.34
2023-03-03T05:46:57.751Z,50.51
2023-03-03T05:49:26.062Z,50.56
2023-03-03T05:51:52.824Z,50.44
2023-03-03T05:54:19.540Z,50.53
2023-03-03T05:56:46.366Z,50.68
2023-03-03T05:59:13.066Z,50.32
2023-03-03T06:01:39.875Z,50.43
2023-03-03T06:04:06.651Z,50.20
2023-03-03T06:06:34.065Z,50.61
2023-03-03T06:09:01.306Z,50.34
2023-03-03T06:11:28.274Z,50.59
2023-03-03T06:13:54.949Z,51.34
2023-03-03T06:16:21.748Z,51.49
2023-03-03T06:18:48.501Z,52.17
2023-03-03T06:21:15.436Z,52.28
2023-03-03T06:23:42.271Z,52.80
2023-03-03T06:26:09.412Z,53.05
2023-03-03T06:28:36.127Z,53.53
2023-03-03T06:31:02.815Z,53.69
2023-03-03T06:33:31.177Z,54.20
2023-03-03T06:35:59.029Z,53.84
2023-03-03T06:38:26.729Z,54.47
2023-03-03T06:40:53.532Z,54.29
2023-03-03T06:43:20.610Z,54.36
2023-03-03T06:45:47.457Z,54.82
2023-03-03T06:48:14.215Z,54.77
2023-03-03T06:50:41.033Z,54.97
2023-03-03T06:53:14.935Z,55.35
2023-03-03T06:55:44.579Z,55.10
2023-03-03T06:58:19.727Z,55.59
2023-03-03T07:00:57.206Z,55.77
2023-03-03T07:03:32.228Z,55.53
2023-03-03T07:05:58.980Z,55.74
2023-03-03T07:08:31.232Z,55.92
2023-03-03T07:11:02.022Z,55.89
2023-03-03T07:13:29.344Z,55.96
2023-03-03T07:15:59.515Z,55.60
2023-03-03T07:18:54.610Z,55.86
2023-03-03T07:21:23.788Z,55.63
2023-03-03T07:23:52.553Z,55.69
2023-03-03T07:26:23.213Z,55.84
2023-03-03T07:28:54.436Z,55.86
2023-03-03T07:31:39.214Z,55.89
2023-03-03T07:34:42.713Z,55.88
2023-03-03T07:37:19.151Z,55.57
2023-03-03T07:39:47.417Z,55.58
2023-03-03T07:42:29.630Z,55.87
2023-03-03T07:45:32.720Z,55.77
2023-03-03T07:48:17.516Z,55.50
2023-03-03T07:50:44.282Z,55.42
2023-03-03T07:53:27.190Z,55.70
2023-03-03T07:55:54.456Z,55.40
2023-03-03T07:58:28.345Z,55.06
2023-03-03T08:01:33.649Z,55.43
2023-03-03T08:04:01.398Z,55.47
2023-03-03T08:06:35.896Z,56.04
2023-03-03T08:09:11.806Z,56.44
2023-03-03T08:12:00.298Z,56.45
2023-03-03T08:14:33.393Z,56.27
2023-03-03T08:17:01.979Z,56.50
2023-03-03T08:19:30.967Z,56.19
2023-03-03T08:22:18.713Z,56.16
2023-03-03T08:24:45.485Z,55.71
2023-03-03T08:27:12.165Z,55.71
2023-03-03T08:29:38.985Z,55.57
2023-03-03T08:32:05.779Z,55.50
2023-03-03T08:34:32.601Z,55.29
2023-03-03T08:36:59.399Z,55.23
2023-03-03T08:39:26.325Z,54.82
2023-03-03T08:41:53.012Z,54.91
2023-03-03T08:44:20.763Z,55.02
2023-03-03T08:46:47.607Z,55.10
2023-03-03T08:49:14.466Z,55.49
2023-03-03T08:51:41.467Z,55.38
2023-03-03T08:54:08.401Z,55.39
2023-03-03T08:56:35.161Z,55.34
2023-03-03T08:59:03.167Z,54.95
2023-03-03T09:01:33.675Z,54.67
2023-03-03T09:04:00.816Z,54.72
2023-03-03T09:06:27.792Z,54.70
2023-03-03T09:08:55.183Z,54.31
2023-03-03T09:11:27.641Z,54.09
2023-03-03T09:14:15.064Z,54.10
2023-03-03T09:16:52.474Z,53.76
2023-03-03T09:19:39.462Z,54.15
2023-03-03T09:22:20.859Z,54.16
2023-03-03T09:24:48.253Z,53.84
2023-03-03T09:27:31.508Z,54.02
2023-03-03T09:30:03.362Z,53.87
2023-03-03T09:32:39.822Z,53.93
2023-03-03T09:35:36.389Z,54.14
2023-03-03T09:38:26.524Z,53.83
2023-03-03T09:41:05.482Z,53.66
2023-03-03T09:43:35.180Z,53.91
2023-03-03T09:46:14.772Z,53.55
2023-03-03T09:48:53.178Z,53.82
2023-03-03T09:51:22.932Z,53.17
2023-03-03T09:53:58.607Z,53.30
2023-03-03T09:56:29.601Z,52.83
2023-03-03T09:59:25.449Z,52.38
2023-03-03T10:02:23.268Z,52.20
2023-03-03T10:05:38.048Z,52.09
2023-03-03T10:08:12.681Z,51.69
2023-03-03T10:11:05.245Z,51.68
2023-03-03T10:13:55.889Z,51.30
2023-03-03T10:16:58.608Z,51.08
2023-03-03T10:19:37.827Z,50.61
2023-03-03T10:22:19.590Z,50.15
2023-03-03T10:24:46.593Z,49.68
2023-03-03T10:27:38.643Z,49.50
2023-03-03T10:30:37.133Z,49.29
2023-03-03T10:33:28.506Z,49.35
2023-03-03T10:36:07.386Z,48.85
2023-03-03T10:38:39.688Z,48.17
2023-03-03T10:41:49.000Z,47.93
2023-03-03T10:44:26.195Z,47.67
2023-03-03T10:47:07.893Z,47.63
2023-03-03T10:49:53.433Z,47.87
2023-03-03T10:52:23.094Z,47.20
2023-03-03T10:54:49.642Z,47.13
2023-03-03T10:57:16.327Z,46.99
2023-03-03T10:59:42.844Z,47.18
2023-03-03T11:02:22.617Z,46.82
2023-03-03T11:04:49.206Z,46.78
2023-03-03T11:07:50.871Z,47.29
2023-03-03T11:10:20.583Z,47.02
2023-03-03T11:13:09.105Z,46.78
2023-03-03T11:15:44.474Z,46.50
2023-03-03T11:18:26.154Z,46.54
2023-03-03T11:21:06.565Z,46.62
2023-03-03T11:23:45.995Z,45.92
2023-03-03T11:26:19.542Z,46.06
2023-03-03T11:28:46.501Z,46.15
2023-03-03T11:31:19.799Z,46.35
2023-03-03T11:34:01.500Z,46.37
2023-03-03T11:36:29.158Z,46.40
2023-03-03T11:39:06.310Z,46.03
2023-03-03T11:41:36.984Z,46.33
2023-03-03T11:44:05.497Z,46.32
2023-03-03T11:46:38.488Z,45.67
2023-03-03T11:49:05.850Z,45.98
2023-03-03T11:51:34.553Z,45.47
2023-03-03T11:54:14.127Z,45.32
2023-03-03T11:56:44.788Z,45.32
2023-03-03T11:59:14.520Z,45.47
2023-03-03T12:01:41.163Z,45.50
2023-03-03T12:04:12.581Z,45.39
2023-03-03T12:07:12.962Z,45.64
2023-03-03T12:10:12.489Z,45.28
2023-03-03T12:12:46.325Z,45.08
2023-03-03T12:15:18.692Z,44.58
2023-03-03T12:17:45.882Z,44.62
2023-03-03T12:20:22.517Z,44.16
2023-03-03T12:23:07.172Z,44.18
2023-03-03T12:25:37.366Z,44.06
2023-03-03T12:28:12.182Z,44.09
2023-03-03T12:30:54.079Z,43.83
2023-03-03T12:33:54.074Z,43.51
2023-03-03T12:36:59.241Z,43.23
2023-03-03T12:39:44.888Z,43.47
2023-03-03T12:42:23.335Z,43.25
2023-03-03T12:45:12.735Z,43.53
2023-03-03T12:47:40.585Z,43.05
2023-03-03T12:50:11.173Z,43.89
2023-03-03T12:52:44.250Z,43.44
2023-03-03T12:55:16.883Z,44.20
2023-03-03T12:57:59.329Z,44.18
2023-03-03T13:00:26.034Z,43.80
2023-03-03T13:02:56.685Z,43.35
2023-03-03T13:05:43.103Z,43.71
2023-03-03T13:08:11.311Z,43.44
2023-03-03T13:10:55.766Z,43.57
2023-03-03T13:13:41.316Z,43.48
2023-03-03T13:16:17.239Z,43.54
2023-03-03T13:18:53.197Z,43.26
2023-03-03T13:21:25.914Z,42.90
2023-03-03T13:24:10.968Z,44.05
2023-03-03T13:26:38.361Z,44.15
2023-03-03T13:29:20.997Z,43.73
2023-03-03T13:31:48.708Z,43.75
2023-03-03T13:54:50.145Z,44.00
2023-03-03T13:57:17.072Z,44.52
2023-03-03T13:59:56.530Z,44.02
2023-03-03T14:02:46.133Z,44.21
2023-03-03T14:05:12.796Z,44.43
2023-03-03T14:07:41.249Z,44.07
2023-03-03T14:10:16.949Z,43.87
2023-03-03T14:12:46.890Z,44.18
2023-03-03T14:15:16.508Z,44.40
2023-03-03T14:17:53.218Z,43.89
2023-03-03T14:20:24.610Z,43.66
2023-03-03T14:23:09.430Z,43.79
2023-03-03T14:25:51.386Z,43.63
2023-03-03T14:28:18.024Z,43.72
2023-03-03T14:30:44.838Z,43.35
2023-03-03T14:33:11.460Z,43.43
2023-03-03T14:36:04.167Z,43.85
2023-03-03T14:38:33.851Z,43.56
2023-03-03T14:44:14.259Z,44.21
2023-03-03T14:46:41.674Z,44.24
2023-03-03T14:49:27.005Z,44.22
2023-03-03T14:51:53.599Z,44.21
2023-03-03T14:54:21.815Z,44.30
2023-03-03T14:56:57.872Z,44.27
2023-03-03T14:59:25.618Z,44.99
2023-03-03T15:01:57.912Z,45.07
2023-03-03T15:04:25.787Z,46.13
2023-03-03T15:06:53.481Z,45.26
2023-03-03T15:09:43.626Z,45.16
2023-03-03T15:12:36.707Z,45.83
2023-03-03T15:15:06.155Z,46.59
2023-03-03T15:17:40.171Z,47.16
2023-03-03T15:20:22.165Z,47.33
2023-03-03T15:23:07.166Z,46.20
2023-03-03T15:25:44.236Z,46.07
2023-03-03T15:28:26.838Z,45.58
2023-03-03T15:30:55.357Z,45.43
2023-03-03T15:33:27.188Z,45.48
2023-03-03T15:35:54.973Z,46.21
2023-03-03T15:38:36.959Z,46.89
2023-03-03T15:41:07.217Z,47.13
2023-03-03T15:43:45.202Z,47.50
2023-03-03T15:46:12.234Z,47.99
2023-03-03T15:48:38.811Z,48.45
2023-03-03T15:51:24.200Z,48.34
2023-03-03T15:53:56.936Z,48.39
2023-03-03T15:56:23.474Z,48.11
2023-03-03T15:58:49.937Z,47.71
2023-03-03T16:01:22.407Z,46.05
2023-03-03T16:03:56.341Z,45.56
2023-03-03T16:06:26.997Z,45.69
2023-03-03T16:08:53.445Z,45.55
2023-03-03T16:11:38.885Z,45.41
2023-03-03T16:14:08.506Z,46.13
2023-03-03T16:16:40.848Z,46.27
2023-03-03T16:19:29.360Z,46.52
2023-03-03T16:22:04.125Z,46.84
2023-03-03T16:24:43.826Z,46.91
2023-03-03T16:27:29.265Z,47.38
2023-03-03T16:30:05.096Z,47.57
2023-03-03T16:32:54.905Z,47.77
2023-03-03T16:35:21.641Z,48.42
2023-03-03T16:37:48.166Z,48.72
2023-03-03T16:40:21.011Z,49.97
2023-03-03T16:42:48.319Z,50.54
2023-03-03T16:45:17.625Z,51.08
2023-03-03T16:47:47.210Z,51.61
2023-03-03T16:50:21.065Z,52.11
2023-03-03T16:52:48.719Z,52.28
2023-03-03T16:55:24.032Z,52.60
2023-03-03T16:57:51.564Z,52.58
2023-03-03T17:00:20.734Z,52.92
2023-03-03T17:02:50.322Z,52.79
2023-03-03T17:05:22.124Z,52.97
2023-03-03T17:07:48.679Z,53.41
2023-03-03T17:10:17.915Z,54.06
2023-03-03T17:12:56.644Z,54.83
2023-03-03T17:15:51.049Z,55.13
2023-03-03T17:18:44.805Z,54.87
2023-03-03T17:21:31.131Z,55.16
2023-03-03T17:24:35.078Z,55.17
2023-03-03T17:27:40.199Z,55.05
2023-03-03T17:30:22.543Z,54.61
2023-03-03T17:32:55.154Z,54.95
2023-03-03T17:35:31.507Z,55.19
2023-03-03T17:38:12.770Z,55.92
2023-03-03T17:41:09.607Z,55.99
2023-03-03T17:43:54.092Z,56.08
2023-03-03T17:46:29.574Z,56.47
2023-03-03T17:48:58.886Z,56.95
2023-03-03T17:51:44.339Z,56.91
2023-03-03T17:54:19.573Z,56.53
2023-03-03T17:56:49.073Z,56.04
2023-03-03T17:59:52.244Z,55.60
2023-03-03T18:02:37.458Z,54.82
2023-03-03T18:05:22.561Z,54.28
2023-03-03T18:08:02.505Z,54.06
2023-03-03T18:10:42.841Z,53.36
2023-03-03T18:13:38.692Z,53.43
2023-03-03T18:16:19.215Z,53.07
2023-03-03T18:18:57.401Z,52.70
2023-03-03T18:21:30.669Z,52.67
2023-03-03T18:24:25.391Z,52.11
2023-03-03T18:26:55.941Z,51.86
2023-03-03T18:29:27.945Z,51.65
2023-03-03T18:31:57.497Z,51.67
2023-03-03T18:34:35.689Z,51.85
2023-03-03T18:37:09.943Z,51.50
2023-03-03T18:39:41.135Z,51.11
2023-03-03T18:42:16.984Z,51.07
2023-03-03T18:44:44.409Z,50.85
2023-03-03T18:47:11.445Z,50.91
2023-03-03T18:50:17.037Z,50.49
2023-03-03T18:53:06.476Z,50.72
2023-03-03T18:55:43.143Z,50.22
2023-03-03T18:58:15.954Z,50.26
2023-03-03T19:00:49.318Z,50.38
2023-03-03T19:03:37.890Z,50.25
2023-03-03T19:06:08.568Z,50.02
2023-03-03T19:08:56.247Z,50.29
2023-03-03T19:11:42.509Z,50.09
2023-03-03T19:14:17.807Z,50.37
2023-03-03T19:16:45.283Z,50.46
2023-03-03T19:19:17.207Z,50.45
2023-03-03T19:21:48.134Z,50.19
2023-03-03T19:24:33.749Z,50.43
2023-03-03T19:27:28.593Z,50.73
2023-03-03T19:30:13.938Z,50.28
2023-03-03T19:32:58.595Z,50.50
2023-03-03T19:35:55.077Z,50.43
2023-03-03T19:38:43.287Z,50.60
2023-03-03T19:41:18.542Z,50.72
2023-03-03T19:44:08.153Z,50.85
2023-03-03T19:46:50.436Z,50.74
2023-03-03T19:49:51.346Z,50.67
2023-03-03T19:52:17.956Z,50.72
2023-03-03T19:55:03.049Z,50.88
2023-03-03T19:58:10.026Z,50.42
2023-03-03T20:00:46.674Z,50.50
2023-03-03T20:03:50.562Z,50.48
2023-03-03T20:06:46.102Z,50.78
2023-03-03T20:09:23.378Z,50.23
2023-03-03T20:11:53.073Z,50.33
2023-03-03T20:14:49.285Z,50.45
2023-03-03T20:17:36.406Z,50.38
2023-03-03T20:20:06.028Z,49.97
2023-03-03T20:22:40.803Z,49.87
2023-03-03T20:25:19.727Z,50.38
2023-03-03T20:28:14.194Z,49.85
2023-03-03T20:31:07.120Z,49.45
2023-03-03T20:34:18.404Z,49.64
2023-03-03T20:37:03.251Z,49.77
2023-03-03T20:39:48.435Z,49.60
2023-03-03T20:43:07.414Z,49.34
2023-03-03T20:45:55.833Z,49.50
2023-03-03T20:48:40.738Z,49.34
2023-03-03T20:51:47.984Z,49.31
2023-03-03T20:54:41.870Z,49.17
2023-03-03T20:57:37.902Z,49.09
2023-03-03T21:00:12.004Z,48.57
2023-03-03T21:02:50.689Z,49.04
2023-03-03T21:05:18.453Z,48.71
2023-03-03T21:07:55.188Z,48.87
2023-03-03T21:10:24.281Z,48.70
2023-03-03T21:12:54.445Z,48.85
2023-03-03T21:15:28.389Z,48.54
2023-03-03T21:17:55.210Z,48.72
2023-03-03T21:20:31.802Z,48.46
2023-03-03T21:22:58.811Z,48.58
2023-03-03T21:25:40.759Z,48.59
2023-03-03T21:28:16.330Z,48.27
2023-03-03T21:31:01.620Z,48.34
2023-03-03T21:33:43.378Z,48.20
2023-03-03T21:36:10.741Z,48.37
2023-03-03T21:38:37.733Z,48.20
2023-03-03T21:41:04.610Z,48.37
2023-03-03T21:43:38.429Z,48.07
2023-03-03T21:46:05.188Z,48.30
2023-03-03T21:48:32.008Z,48.22
2023-03-03T21:50:58.556Z,48.16
2023-03-03T21:53:26.536Z,48.28
2023-03-03T21:55:53.460Z,48.27
2023-03-03T21:58:19.939Z,48.01
2023-03-03T22:00:46.404Z,48.25
2023-03-03T22:03:13.689Z,48.37
2023-03-03T22:05:40.703Z,48.10
2023-03-03T22:08:07.258Z,48.25
2023-03-03T22:10:34.065Z,48.16
2023-03-03T22:13:00.617Z,48.29
2023-03-03T22:15:30.448Z,48.34
2023-03-03T22:17:57.102Z,48.21
2023-03-03T22:20:23.615Z,48.13
2023-03-03T22:22:50.124Z,48.38
2023-03-03T22:25:16.552Z,48.39
2023-03-03T22:27:43.060Z,47.95
2023-03-03T22:30:09.923Z,48.22
2023-03-03T22:32:36.494Z,48.18
2023-03-03T22:35:03.019Z,48.31
2023-03-03T22:37:29.569Z,48.25
2023-03-03T22:39:56.011Z,48.01
2023-03-03T22:42:23.418Z,47.97
2023-03-03T22:44:49.852Z,48.30
2023-03-03T22:47:16.429Z,48.09
2023-03-03T22:49:42.938Z,48.36
2023-03-03T22:52:09.480Z,48.01
2023-03-03T22:54:36.001Z,48.20
2023-03-03T22:57:02.533Z,48.08
2023-03-03T22:59:28.999Z,48.44
2023-03-03T23:01:56.124Z,48.19
2023-03-03T23:04:22.801Z,48.44
2023-03-03T23:06:50.131Z,48.40
2023-03-03T23:09:16.637Z,48.44
2023-03-03T23:11:43.357Z,48.34
2023-03-03T23:14:10.035Z,48.22
2023-03-03T23:16:36.677Z,48.21
2023-03-03T23:19:03.343Z,48.30
2023-03-03T23:21:29.938Z,48.36
2023-03-03T23:23:56.639Z,48.57
2023-03-03T23:26:23.301Z,48.32
2023-03-03T23:28:49.930Z,48.44
2023-03-03T23:31:16.537Z,48.22
2023-03-03T23:33:43.127Z,48.25
2023-03-03T23:36:09.998Z,48.41
2023-03-03T23:38:36.612Z,48.21
2023-03-03T23:41:03.177Z,48.20
2023-03-03T23:43:29.889Z,48.18
2023-03-03T23:45:56.506Z,47.99
2023-03-03T23:48:23.064Z,48.01
2023-03-03T23:50:49.649Z,48.13
2023-03-03T23:53:16.355Z,48.01
2023-03-03T23:55:43.378Z,48.25
2023-03-03T23:58:10.221Z,48.34
